createdAt,value
2023-01-23T00:01:25.439Z,265.683
2023-01-23T00:03:05.645Z,265.65
2023-01-23T00:04:47.047Z,265.683
2023-01-23T00:04:47.056Z,265.683
2023-01-23T00:06:26.148Z,265.683
2023-01-23T00:08:06.335Z,265.683
2023-01-23T00:09:46.534Z,265.683
2023-01-23T00:11:26.761Z,265.683
2023-01-23T00:13:06.937Z,265.7
2023-01-23T00:14:47.180Z,265.7
2023-01-23T00:16:27.413Z,265.7
2023-01-23T00:18:07.596Z,265.717
2023-01-23T00:19:47.856Z,265.75
2023-01-23T00:21:28.047Z,265.7
2023-01-23T00:23:08.292Z,265.717
2023-01-23T00:24:48.498Z,265.717
2023-01-23T00:26:28.755Z,265.767
2023-01-23T00:28:08.948Z,265.717
2023-01-23T00:29:49.141Z,265.75
2023-01-23T00:31:29.579Z,265.8
2023-01-23T00:33:09.640Z,265.767
2023-01-23T00:34:49.816Z,265.8
2023-01-23T00:36:30.042Z,265.767
2023-01-23T00:38:10.271Z,265.8
2023-01-23T00:39:50.489Z,265.8
2023-01-23T00:41:30.688Z,265.85
2023-01-23T00:43:10.892Z,265.867
2023-01-23T00:44:51.102Z,265.85
2023-01-23T00:46:31.443Z,265.85
2023-01-23T00:48:11.559Z,265.867
2023-01-23T00:51:32.163Z,265.883
2023-01-23T00:53:12.252Z,265.883
2023-01-23T00:54:52.484Z,265.867
2023-01-23T00:56:32.719Z,265.867
2023-01-23T00:58:12.909Z,265.917
2023-01-23T00:59:53.108Z,265.883
2023-01-23T01:01:33.332Z,265.917
2023-01-23T01:03:13.598Z,265.917
2023-01-23T01:04:53.746Z,265.933
2023-01-23T01:06:33.937Z,265.883
2023-01-23T01:08:14.073Z,265.917
2023-01-23T01:09:54.259Z,265.933
2023-01-23T01:11:34.502Z,265.933
2023-01-23T01:13:14.728Z,265.933
2023-01-23T01:14:54.928Z,265.933
2023-01-23T01:16:35.207Z,265.967
2023-01-23T01:18:15.352Z,265.917
2023-01-23T01:19:55.543Z,265.967
2023-01-23T01:21:35.806Z,265.983
2023-01-23T01:23:15.995Z,265.983
2023-01-23T01:24:56.157Z,265.983
2023-01-23T01:26:36.386Z,265.967
2023-01-23T01:28:16.631Z,266
2023-01-23T01:29:56.844Z,266.033
2023-01-23T01:31:37.173Z,266
2023-01-23T01:33:17.295Z,266
2023-01-23T01:34:57.439Z,266
2023-01-23T01:36:37.698Z,266
2023-01-23T01:38:17.877Z,266
2023-01-23T01:39:58.104Z,266.1
2023-01-23T01:41:38.283Z,266.083
2023-01-23T01:43:18.504Z,266.083
2023-01-23T01:44:58.661Z,266.1
2023-01-23T01:46:38.951Z,266.083
2023-01-23T01:48:19.087Z,266.133
2023-01-23T01:49:59.342Z,266.1
2023-01-23T01:51:39.549Z,266.133
2023-01-23T01:53:19.801Z,266.1
2023-01-23T01:55:00.029Z,266.083
2023-01-23T01:56:40.215Z,266.133
2023-01-23T01:58:20.413Z,266.15
2023-01-23T02:00:00.620Z,266.167
2023-01-23T02:01:40.890Z,266.167
2023-01-23T02:03:21.048Z,266.15
2023-01-23T02:05:01.265Z,266.167
2023-01-23T02:06:41.515Z,266.2
2023-01-23T02:08:21.708Z,266.2
2023-01-23T02:10:01.949Z,266.2
2023-01-23T02:11:42.172Z,266.167
2023-01-23T02:13:22.457Z,266.167
2023-01-23T02:15:02.621Z,266.167
2023-01-23T02:16:42.832Z,266.167
2023-01-23T02:18:23.035Z,266.217
2023-01-23T02:20:03.228Z,266.217
2023-01-23T02:21:43.509Z,266.217
2023-01-23T02:23:23.745Z,266.217
2023-01-23T02:25:03.959Z,266.217
2023-01-23T02:26:44.224Z,266.2
2023-01-23T02:28:24.436Z,266.317
2023-01-23T02:30:04.649Z,266.3
2023-01-23T02:31:44.922Z,266.3
2023-01-23T02:33:25.138Z,266.267
2023-01-23T02:35:05.349Z,266.3
2023-01-23T02:36:45.612Z,266.3
2023-01-23T02:38:25.801Z,266.317
2023-01-23T02:40:05.970Z,266.333
2023-01-23T02:41:46.188Z,266.317
2023-01-23T02:43:26.367Z,266.317
2023-01-23T02:45:06.565Z,266.333
2023-01-23T02:46:46.813Z,266.367
2023-01-23T02:48:27.042Z,266.333
2023-01-23T02:50:07.279Z,266.367
2023-01-23T02:51:47.523Z,266.333
2023-01-23T02:53:27.704Z,266.367
2023-01-23T02:55:07.907Z,266.383
2023-01-23T02:56:48.129Z,266.417
2023-01-23T02:58:28.270Z,266.383
2023-01-23T03:00:08.520Z,266.417
2023-01-23T03:01:48.785Z,266.417
2023-01-23T03:03:28.914Z,266.417
2023-01-23T03:05:09.159Z,266.433
2023-01-23T03:06:49.318Z,266.383
2023-01-23T03:08:29.601Z,266.433
2023-01-23T03:10:09.831Z,266.417
2023-01-23T03:11:50.029Z,266.417
2023-01-23T03:13:30.223Z,266.433
2023-01-23T03:15:10.440Z,266.467
2023-01-23T03:16:50.673Z,266.433
2023-01-23T03:18:30.858Z,266.433
2023-01-23T03:20:11.119Z,266.433
2023-01-23T03:21:51.268Z,266.433
2023-01-23T03:23:31.516Z,266.5
2023-01-23T03:25:11.734Z,266.533
2023-01-23T03:26:51.870Z,266.5
2023-01-23T03:28:32.104Z,266.5
2023-01-23T03:30:12.310Z,266.533
2023-01-23T03:31:52.620Z,266.533
2023-01-23T03:33:32.760Z,266.533
2023-01-23T03:35:12.989Z,266.583
2023-01-23T03:36:53.173Z,266.55
2023-01-23T03:38:33.390Z,266.55
2023-01-23T03:40:13.610Z,266.55
2023-01-23T03:41:53.852Z,266.583
2023-01-23T03:43:34.063Z,266.6
2023-01-23T03:45:14.279Z,266.6
2023-01-23T03:46:54.533Z,266.6
2023-01-23T03:48:34.770Z,266.583
2023-01-23T03:50:15.011Z,266.6
2023-01-23T03:51:55.220Z,266.6
2023-01-23T03:53:35.430Z,266.633
2023-01-23T03:55:15.629Z,266.633
2023-01-23T03:56:55.861Z,266.633
2023-01-23T03:58:36.016Z,266.633
2023-01-23T04:00:16.223Z,266.633
2023-01-23T04:01:56.420Z,266.65
2023-01-23T04:03:36.670Z,266.667
2023-01-23T04:05:16.871Z,266.65
2023-01-23T04:06:57.119Z,266.667
2023-01-23T04:08:37.310Z,266.65
2023-01-23T04:10:17.685Z,266.65
2023-01-23T04:11:57.740Z,266.7
2023-01-23T04:13:37.980Z,266.667
2023-01-23T04:15:18.208Z,266.667
2023-01-23T04:16:58.418Z,266.7
2023-01-23T04:18:38.634Z,266.7
2023-01-23T04:20:19.154Z,266.667
2023-01-23T04:21:59.039Z,266.667
2023-01-23T04:23:39.262Z,266.75
2023-01-23T04:25:19.442Z,266.75
2023-01-23T04:26:59.672Z,266.75
2023-01-23T04:28:39.923Z,266.75
2023-01-23T04:30:20.517Z,266.767
2023-01-23T04:32:00.271Z,266.8
2023-01-23T04:33:40.495Z,266.767
2023-01-23T04:35:20.777Z,266.767
2023-01-23T04:37:00.962Z,266.8
2023-01-23T04:38:41.143Z,266.817
2023-01-23T04:40:21.675Z,266.8
2023-01-23T04:42:01.586Z,266.8
2023-01-23T04:43:41.820Z,266.817
2023-01-23T04:45:22.039Z,266.833
2023-01-23T04:47:02.269Z,266.817
2023-01-23T04:48:42.558Z,266.817
2023-01-23T04:50:22.756Z,266.883
2023-01-23T04:52:02.985Z,266.833
2023-01-23T04:53:43.175Z,266.833
2023-01-23T04:55:23.346Z,266.833
2023-01-23T04:57:03.537Z,266.833
2023-01-23T04:58:43.762Z,266.883
2023-01-23T05:00:23.926Z,266.883
2023-01-23T05:02:04.229Z,266.883
2023-01-23T05:03:44.357Z,266.883
2023-01-23T05:05:24.615Z,266.883
2023-01-23T05:07:04.844Z,266.917
2023-01-23T05:08:45.009Z,266.883
2023-01-23T05:10:25.252Z,266.967
2023-01-23T05:12:05.430Z,266.933
2023-01-23T05:13:45.693Z,266.967
2023-01-23T05:15:25.880Z,266.967
2023-01-23T05:17:06.127Z,266.967
2023-01-23T05:18:46.330Z,266.967
2023-01-23T05:20:26.526Z,267
2023-01-23T05:22:06.700Z,266.983
2023-01-23T05:23:46.949Z,267
2023-01-23T05:25:27.149Z,267.033
2023-01-23T05:27:07.339Z,267
2023-01-23T05:28:47.646Z,267.033
2023-01-23T05:30:27.854Z,267.05
2023-01-23T05:32:08.038Z,267.05
2023-01-23T05:33:48.269Z,267.05
2023-01-23T05:35:28.482Z,267.083
2023-01-23T05:37:08.686Z,267.083
2023-01-23T05:38:48.935Z,267.117
2023-01-23T05:40:29.157Z,267.1
2023-01-23T05:42:09.384Z,267.1
2023-01-23T05:43:49.561Z,267.1
2023-01-23T05:45:29.728Z,267.1
2023-01-23T05:47:09.991Z,267.117
2023-01-23T05:48:50.294Z,267.117
2023-01-23T05:50:31.899Z,267.15
2023-01-23T05:52:10.865Z,267.15
2023-01-23T05:53:51.074Z,267.15
2023-01-23T05:55:31.353Z,267.15
2023-01-23T05:57:11.542Z,267.217
2023-01-23T05:58:51.816Z,267.217
2023-01-23T06:00:31.969Z,267.2
2023-01-23T06:02:12.186Z,267.217
2023-01-23T06:03:52.435Z,267.217
2023-01-23T06:05:32.560Z,267.217
2023-01-23T06:07:12.817Z,267.25
2023-01-23T06:08:53.034Z,267.25
2023-01-23T06:10:33.222Z,267.217
2023-01-23T06:12:13.468Z,267.25
2023-01-23T06:13:53.691Z,267.217
2023-01-23T06:15:34.013Z,267.267
2023-01-23T06:17:14.237Z,267.267
2023-01-23T06:18:54.464Z,267.267
2023-01-23T06:20:34.720Z,267.283
2023-01-23T06:22:14.918Z,267.267
2023-01-23T06:23:55.099Z,267.25
2023-01-23T06:25:35.335Z,267.267
2023-01-23T06:27:15.551Z,267.317
2023-01-23T06:28:55.802Z,267.283
2023-01-23T06:30:36.031Z,267.283
2023-01-23T06:32:16.181Z,267.283
2023-01-23T06:33:56.355Z,267.317
2023-01-23T06:35:36.630Z,267.283
2023-01-23T06:37:16.834Z,267.333
2023-01-23T06:38:57.089Z,267.367
2023-01-23T06:40:37.222Z,267.333
2023-01-23T06:42:17.529Z,267.333
2023-01-23T06:43:57.739Z,267.317
2023-01-23T06:45:37.963Z,267.317
2023-01-23T06:47:18.198Z,267.333
2023-01-23T06:48:58.419Z,267.367
2023-01-23T06:50:38.608Z,267.367
2023-01-23T06:52:18.795Z,267.367
2023-01-23T06:53:58.980Z,267.333
2023-01-23T06:55:39.168Z,267.367
2023-01-23T06:57:19.455Z,267.433
2023-01-23T06:58:59.689Z,267.433
2023-01-23T07:00:39.907Z,267.433
2023-01-23T07:02:20.078Z,267.433
2023-01-23T07:04:00.315Z,267.433
2023-01-23T07:05:40.515Z,267.417
2023-01-23T07:07:20.700Z,267.433
2023-01-23T07:09:00.857Z,267.45
2023-01-23T07:10:41.097Z,267.483
2023-01-23T07:12:21.323Z,267.433
2023-01-23T07:14:01.568Z,267.483
2023-01-23T07:15:41.745Z,267.45
2023-01-23T07:17:22.039Z,267.5
2023-01-23T07:19:02.214Z,267.5
2023-01-23T07:20:42.449Z,267.5
2023-01-23T07:22:22.680Z,267.5
2023-01-23T07:24:02.875Z,267.5
2023-01-23T07:25:43.058Z,267.483
2023-01-23T07:27:23.281Z,267.483
2023-01-23T07:29:03.469Z,267.533
2023-01-23T07:30:43.778Z,267.5
2023-01-23T07:32:23.892Z,267.55
2023-01-23T07:34:04.089Z,267.533
2023-01-23T07:35:44.321Z,267.55
2023-01-23T07:37:24.531Z,267.533
2023-01-23T07:39:04.782Z,267.55
2023-01-23T07:40:44.975Z,267.55
2023-01-23T07:42:25.189Z,267.583
2023-01-23T07:44:05.367Z,267.583
2023-01-23T07:45:45.589Z,267.583
2023-01-23T07:47:25.838Z,267.583
2023-01-23T07:49:06.022Z,267.583
2023-01-23T07:50:46.251Z,267.6
2023-01-23T07:52:26.510Z,267.6
2023-01-23T07:54:06.696Z,267.583
2023-01-23T07:55:46.890Z,267.583
2023-01-23T07:57:27.083Z,267.65
2023-01-23T07:59:07.224Z,267.65
2023-01-23T08:00:47.427Z,267.617
2023-01-23T08:02:27.725Z,267.7
2023-01-23T08:04:07.779Z,267.7
2023-01-23T08:05:47.967Z,267.7
2023-01-23T08:07:28.125Z,267.7
2023-01-23T08:09:08.329Z,267.667
2023-01-23T08:10:48.473Z,267.717
2023-01-23T08:12:28.682Z,267.7
2023-01-23T08:14:08.920Z,267.75
2023-01-23T08:15:49.115Z,267.75
2023-01-23T08:17:29.387Z,267.75
2023-01-23T08:19:09.572Z,267.75
2023-01-23T08:20:49.776Z,267.75
2023-01-23T08:22:30.008Z,267.767
2023-01-23T08:24:10.236Z,267.75
2023-01-23T08:25:50.820Z,267.767
2023-01-23T08:27:30.640Z,267.767
2023-01-23T08:29:10.835Z,267.783
2023-01-23T08:30:51.133Z,267.767
2023-01-23T08:32:31.285Z,267.767
2023-01-23T08:34:11.505Z,267.783
2023-01-23T08:35:51.703Z,267.817
2023-01-23T08:37:31.897Z,267.817
2023-01-23T08:39:12.143Z,267.783
2023-01-23T08:40:52.359Z,267.817
2023-01-23T08:42:32.548Z,267.817
2023-01-23T08:44:12.796Z,267.883
2023-01-23T08:45:53.073Z,267.867
2023-01-23T08:47:33.193Z,267.867
2023-01-23T08:49:13.444Z,267.883
2023-01-23T08:50:53.688Z,267.883
2023-01-23T08:52:33.866Z,267.867
2023-01-23T08:54:14.084Z,267.917
2023-01-23T08:55:54.248Z,267.883
2023-01-23T08:57:34.520Z,267.917
2023-01-23T08:59:14.691Z,267.917
2023-01-23T09:00:54.929Z,267.917
2023-01-23T09:02:35.132Z,267.883
2023-01-23T09:04:15.365Z,267.933
2023-01-23T09:05:55.548Z,267.95
2023-01-23T09:07:35.743Z,267.917
2023-01-23T09:09:15.924Z,267.933
2023-01-23T09:10:56.143Z,267.917
2023-01-23T09:12:36.332Z,267.917
2023-01-23T09:14:16.535Z,267.95
2023-01-23T09:15:56.770Z,268
2023-01-23T09:17:36.956Z,268.05
2023-01-23T09:19:17.121Z,268.033
2023-01-23T09:20:57.327Z,268.033
2023-01-23T09:22:37.595Z,268.117
2023-01-23T09:24:17.795Z,268.083
2023-01-23T09:25:57.934Z,268.1
2023-01-23T09:27:38.113Z,268.117
2023-01-23T09:29:18.363Z,268.1
2023-01-23T09:30:58.608Z,268.117
2023-01-23T09:32:38.792Z,268.1
2023-01-23T09:34:19.093Z,268.117
2023-01-23T09:35:59.304Z,268.15
2023-01-23T09:37:39.521Z,268.117
2023-01-23T09:39:19.776Z,268.117
2023-01-23T09:40:59.979Z,268.15
2023-01-23T09:42:40.174Z,268.117
2023-01-23T09:44:20.516Z,268.15
2023-01-23T09:46:00.731Z,268.167
2023-01-23T09:47:40.900Z,268.167
2023-01-23T09:49:21.128Z,268.15
2023-01-23T09:51:01.333Z,268.2
2023-01-23T09:52:41.530Z,268.2
2023-01-23T09:54:21.706Z,268.2
2023-01-23T09:56:01.912Z,268.217
2023-01-23T09:57:42.107Z,268.217
2023-01-23T09:59:22.308Z,268.2
2023-01-23T10:01:02.515Z,268.2
2023-01-23T10:02:42.828Z,268.217
2023-01-23T10:04:22.922Z,268.217
2023-01-23T10:06:03.159Z,268.25
2023-01-23T10:07:43.338Z,268.25
2023-01-23T10:09:23.561Z,268.25
2023-01-23T10:11:03.790Z,268.217
2023-01-23T10:12:44.015Z,268.267
2023-01-23T10:14:24.307Z,268.267
2023-01-23T10:16:04.431Z,268.267
2023-01-23T10:17:44.613Z,268.267
2023-01-23T10:19:24.824Z,268.267
2023-01-23T10:21:05.039Z,268.317
2023-01-23T10:22:45.220Z,268.317
2023-01-23T10:24:25.416Z,268.333
2023-01-23T10:26:05.568Z,268.367
2023-01-23T10:27:45.871Z,268.333
2023-01-23T10:29:26.075Z,268.367
2023-01-23T10:31:06.353Z,268.367
2023-01-23T10:32:46.416Z,268.367
2023-01-23T10:34:26.726Z,268.367
2023-01-23T10:36:06.983Z,268.383
2023-01-23T10:37:47.242Z,268.433
2023-01-23T10:39:27.474Z,268.4
2023-01-23T10:41:07.719Z,268.4
2023-01-23T10:42:47.906Z,268.4
2023-01-23T10:44:28.070Z,268.4
2023-01-23T10:46:08.407Z,268.433
2023-01-23T10:47:54.611Z,268.4
2023-01-23T10:49:28.780Z,268.45
2023-01-23T10:51:09.080Z,268.433
2023-01-23T10:52:49.296Z,268.45
2023-01-23T10:54:32.584Z,268.433
2023-01-23T10:56:09.704Z,268.433
2023-01-23T10:57:49.904Z,268.45
2023-01-23T10:59:30.124Z,268.45
2023-01-23T11:01:10.451Z,268.483
2023-01-23T11:02:50.648Z,268.483
2023-01-23T11:04:30.815Z,268.45
2023-01-23T11:06:10.983Z,268.45
2023-01-23T11:07:51.241Z,268.45
2023-01-23T11:09:31.407Z,268.5
2023-01-23T11:11:11.644Z,268.533
2023-01-23T11:12:51.874Z,268.483
2023-01-23T11:14:31.978Z,268.483
2023-01-23T11:16:12.201Z,268.5
2023-01-23T11:17:52.525Z,268.567
2023-01-23T11:19:32.623Z,268.567
2023-01-23T11:21:12.832Z,268.567
2023-01-23T11:22:53.036Z,268.567
2023-01-23T11:24:40.368Z,268.567
2023-01-23T11:26:13.455Z,268.55
2023-01-23T11:27:53.696Z,268.567
2023-01-23T11:29:33.900Z,268.567
2023-01-23T11:31:15.902Z,268.6
2023-01-23T11:32:54.330Z,268.617
2023-01-23T11:34:34.581Z,268.6
2023-01-23T11:36:14.834Z,268.617
2023-01-23T11:37:55.011Z,268.65
2023-01-23T11:39:35.256Z,268.617
2023-01-23T11:41:15.476Z,268.65
2023-01-23T11:42:55.707Z,268.617
2023-01-23T11:44:45.697Z,268.65
2023-01-23T11:46:16.269Z,268.667
2023-01-23T11:47:56.456Z,268.667
2023-01-23T11:49:36.721Z,268.7
2023-01-23T11:51:17.134Z,268.667
2023-01-23T11:52:57.146Z,268.667
2023-01-23T11:54:37.344Z,268.7
2023-01-23T11:56:17.526Z,268.667
2023-01-23T11:57:57.694Z,268.7
2023-01-23T12:01:18.134Z,268.7
2023-01-23T12:02:58.402Z,268.7
2023-01-23T12:04:38.579Z,268.7
2023-01-23T12:06:20.454Z,268.783
2023-01-23T12:07:58.984Z,268.767
2023-01-23T12:09:39.204Z,268.733
2023-01-23T12:11:19.396Z,268.767
2023-01-23T12:12:59.646Z,268.767
2023-01-23T12:14:39.892Z,268.817
2023-01-23T12:16:20.125Z,268.817
2023-01-23T12:19:40.805Z,268.817
2023-01-23T12:21:21.246Z,268.783
2023-01-23T12:23:01.631Z,268.783
2023-01-23T12:24:42.015Z,268.817
2023-01-23T12:26:22.619Z,268.833
2023-01-23T12:28:02.831Z,268.833
2023-01-23T12:29:43.266Z,268.833
2023-01-23T12:31:23.568Z,268.867
2023-01-23T12:33:03.717Z,268.867
2023-01-23T12:34:44.027Z,268.883
2023-01-23T12:36:24.260Z,268.833
2023-01-23T12:38:04.459Z,268.883
2023-01-23T12:39:44.722Z,268.883
2023-01-23T12:41:25.049Z,268.883
2023-01-23T12:43:05.335Z,268.883
2023-01-23T12:44:45.592Z,268.9
2023-01-23T12:46:25.737Z,268.883
2023-01-23T12:48:05.941Z,268.883
2023-01-23T12:49:46.144Z,268.9
2023-01-23T12:51:26.455Z,268.883
2023-01-23T12:53:06.643Z,268.9
2023-01-23T12:54:46.878Z,268.95
2023-01-23T12:56:27.032Z,268.933
2023-01-23T12:58:09.349Z,268.933
2023-01-23T12:59:47.501Z,268.933
2023-01-23T13:01:27.734Z,269.033
2023-01-23T13:03:07.945Z,269
2023-01-23T13:04:48.114Z,269
2023-01-23T13:06:28.346Z,268.983
2023-01-23T13:08:08.633Z,269
2023-01-23T13:09:48.765Z,269
2023-01-23T13:11:28.965Z,269.033
2023-01-23T13:13:09.133Z,269.033
2023-01-23T13:15:13.856Z,269.033
2023-01-23T13:16:29.625Z,269.05
2023-01-23T13:18:09.815Z,269.033
2023-01-23T13:19:50.050Z,269.05
2023-01-23T13:21:30.249Z,269.05
2023-01-23T13:23:10.466Z,269.067
2023-01-23T13:24:50.726Z,269.067
2023-01-23T13:26:30.977Z,269.05
2023-01-23T13:28:11.199Z,269.067
2023-01-23T13:31:31.788Z,269.067
2023-01-23T13:33:11.832Z,269.1
2023-01-23T13:34:52.159Z,269.1
2023-01-23T13:36:32.269Z,269.1
2023-01-23T13:38:12.444Z,269.1
2023-01-23T13:40:01.567Z,269.1
2023-01-23T13:41:32.858Z,269.117
2023-01-23T13:43:13.089Z,269.15
2023-01-23T13:44:55.091Z,269.117
2023-01-23T13:46:33.444Z,269.15
2023-01-23T14:21:41.498Z,269.283
2023-01-23T14:23:17.933Z,269.283
2023-01-23T14:24:58.094Z,269.317
2023-01-23T14:26:38.330Z,269.283
2023-01-23T14:28:18.558Z,269.317
2023-01-23T14:29:58.770Z,269.317
2023-01-23T14:31:39.029Z,269.283
2023-01-23T14:33:19.220Z,269.333
2023-01-23T14:34:59.441Z,269.367
2023-01-23T14:36:39.694Z,269.333
2023-01-23T14:38:19.836Z,269.333
2023-01-23T14:40:09.769Z,269.367
2023-01-23T14:41:41.608Z,269.333
2023-01-23T14:43:20.483Z,269.333
2023-01-23T14:45:00.761Z,269.383
2023-01-23T14:46:40.941Z,269.383
2023-01-23T14:48:21.219Z,269.4
2023-01-23T14:50:01.438Z,269.383
2023-01-23T14:51:41.683Z,269.367
2023-01-23T14:53:21.923Z,269.433
2023-01-23T14:55:07.813Z,269.433
2023-01-23T14:56:42.325Z,269.4
2023-01-23T14:58:22.542Z,269.4
2023-01-23T15:00:02.761Z,269.4
2023-01-23T15:01:43.045Z,269.483
2023-01-23T15:03:23.221Z,269.5
2023-01-23T15:05:03.363Z,269.45
2023-01-23T15:06:43.542Z,269.45
2023-01-23T15:08:23.804Z,269.45
2023-01-23T15:10:04.049Z,269.5
2023-01-23T15:11:44.248Z,269.517
2023-01-23T15:13:24.431Z,269.517
2023-01-23T15:15:04.613Z,269.5
2023-01-23T15:16:44.978Z,269.5
2023-01-23T15:18:25.077Z,269.5
2023-01-23T15:20:05.319Z,269.517
2023-01-23T15:21:45.414Z,269.517
2023-01-23T15:23:25.629Z,269.517
2023-01-23T15:25:05.836Z,269.55
2023-01-23T15:26:46.045Z,269.567
2023-01-23T15:28:26.378Z,269.6
2023-01-23T15:30:06.486Z,269.567
2023-01-23T15:31:46.899Z,269.567
2023-01-23T15:33:26.962Z,269.6
2023-01-23T15:35:07.277Z,269.617
2023-01-23T15:36:47.466Z,269.567
2023-01-23T15:38:27.653Z,269.6
2023-01-23T15:40:07.932Z,269.65
2023-01-23T15:41:48.150Z,269.65
2023-01-23T15:43:28.401Z,269.65
2023-01-23T15:45:08.633Z,269.617
2023-01-23T15:46:48.920Z,269.617
2023-01-23T15:48:29.039Z,269.683
2023-01-23T15:50:09.309Z,269.667
2023-01-23T15:51:49.519Z,269.667
2023-01-23T15:53:29.701Z,269.667
2023-01-23T15:55:09.913Z,269.717
2023-01-23T15:57:00.354Z,269.717
2023-01-23T15:58:30.338Z,269.683
2023-01-23T16:00:10.464Z,269.683
2023-01-23T16:01:50.697Z,269.733
2023-01-23T16:03:30.919Z,269.683
2023-01-23T16:05:11.092Z,269.733
2023-01-23T16:06:51.307Z,269.717
2023-01-23T16:08:31.542Z,269.717
2023-01-23T16:10:11.712Z,269.733
2023-01-23T16:11:51.917Z,269.717
2023-01-23T16:13:32.183Z,269.717
2023-01-23T16:15:12.325Z,269.733
2023-01-23T16:16:52.476Z,269.783
2023-01-23T16:18:32.757Z,269.783
2023-01-23T16:20:12.935Z,269.767
2023-01-23T16:22:04.365Z,269.783
2023-01-23T16:23:46.179Z,269.783
2023-01-23T16:25:13.618Z,269.783
2023-01-23T16:26:53.867Z,269.783
2023-01-23T16:28:34.105Z,269.817
2023-01-23T16:30:14.317Z,269.767
2023-01-23T16:31:54.650Z,269.783
2023-01-23T16:33:34.760Z,269.817
2023-01-23T16:35:15.002Z,269.817
2023-01-23T16:36:55.252Z,269.833
2023-01-23T16:38:35.414Z,269.783
2023-01-23T16:40:15.660Z,269.833
2023-01-23T16:41:56.077Z,269.817
2023-01-23T16:43:36.225Z,269.833
2023-01-23T16:45:16.433Z,269.85
2023-01-23T16:46:56.669Z,269.883
2023-01-23T16:48:36.802Z,269.9
2023-01-23T16:50:17.083Z,269.883
2023-01-23T16:51:57.340Z,269.9
2023-01-23T16:53:37.518Z,269.9
2023-01-23T16:55:21.031Z,269.933
2023-01-23T16:56:57.899Z,269.933
2023-01-23T16:58:38.106Z,269.95
2023-01-23T17:00:24.893Z,269.933
2023-01-23T17:01:58.562Z,269.933
2023-01-23T17:03:38.760Z,269.95
2023-01-23T17:05:19.044Z,269.95
2023-01-23T17:06:59.232Z,270
2023-01-23T17:08:39.418Z,270
2023-01-23T17:10:19.595Z,269.95
2023-01-23T17:11:59.761Z,269.983
2023-01-23T17:13:40.014Z,270.017
2023-01-23T17:15:20.574Z,270.017
2023-01-23T17:17:00.455Z,270
2023-01-23T17:18:40.606Z,270.017
2023-01-23T17:20:20.816Z,270
2023-01-23T17:22:01.056Z,270
2023-01-23T17:23:41.250Z,270
2023-01-23T17:25:21.410Z,270.017
2023-01-23T17:27:01.657Z,270.05
2023-01-23T17:28:41.839Z,270.017
2023-01-23T17:30:22.040Z,270.05
2023-01-23T17:32:02.327Z,270.017
2023-01-23T17:33:42.549Z,270.067
2023-01-23T17:35:23.161Z,270.067
2023-01-23T17:37:02.906Z,270.05
2023-01-23T17:38:43.144Z,270.067
2023-01-23T17:40:23.347Z,270.067
2023-01-23T17:42:06.621Z,270.067
2023-01-23T17:43:43.771Z,270.1
2023-01-23T17:45:24.515Z,270.1
2023-01-23T17:47:04.191Z,270.117
2023-01-23T17:50:24.609Z,270.15
2023-01-23T17:52:04.912Z,270.15
2023-01-23T17:53:45.191Z,270.15
2023-01-23T17:55:25.424Z,270.167
2023-01-23T17:57:05.625Z,270.183
2023-01-23T17:58:45.812Z,270.183
2023-01-23T18:00:25.956Z,270.167
2023-01-23T18:02:06.214Z,270.167
2023-01-23T18:03:46.402Z,270.217
2023-01-23T18:05:26.587Z,270.217
2023-01-23T18:07:06.786Z,270.217
2023-01-23T18:08:53.330Z,270.233
2023-01-23T18:10:33.619Z,270.183
2023-01-23T18:12:13.818Z,270.183
2023-01-23T18:13:54.044Z,270.217
2023-01-23T18:15:34.294Z,270.233
2023-01-23T18:17:14.455Z,270.267
2023-01-23T18:18:54.670Z,270.233
2023-01-23T18:20:34.857Z,270.267
2023-01-23T18:22:15.087Z,270.267
2023-01-23T18:23:55.375Z,270.283
2023-01-23T18:25:35.559Z,270.283
2023-01-23T18:27:15.735Z,270.283
2023-01-23T18:28:55.885Z,270.267
2023-01-23T18:30:36.121Z,270.283
2023-01-23T18:32:16.416Z,270.267
2023-01-23T18:33:56.590Z,270.35
2023-01-23T18:35:36.818Z,270.35
2023-01-23T18:37:17.030Z,270.333
2023-01-23T18:38:57.225Z,270.35
2023-01-23T18:40:37.417Z,270.35
2023-01-23T18:42:17.609Z,270.333
2023-01-23T18:43:57.825Z,270.383
2023-01-23T18:45:38.135Z,270.4
2023-01-23T18:47:18.248Z,270.383
2023-01-23T18:48:58.475Z,270.35
2023-01-23T18:50:38.676Z,270.383
2023-01-23T18:52:18.913Z,270.35
2023-01-23T18:53:59.110Z,270.4
2023-01-23T18:55:39.286Z,270.4
2023-01-23T18:57:19.484Z,270.383
2023-01-23T18:59:10.363Z,270.4
2023-01-23T19:00:39.931Z,270.433
2023-01-23T19:02:20.243Z,270.383
2023-01-23T19:04:00.360Z,270.433
2023-01-23T19:05:40.586Z,270.4
2023-01-23T19:07:23.887Z,270.45
2023-01-23T19:09:01.034Z,270.45
2023-01-23T19:10:48.423Z,270.433
2023-01-23T19:12:25.762Z,270.45
2023-01-23T19:14:01.664Z,270.45
2023-01-23T19:15:41.917Z,270.483
2023-01-23T19:17:22.043Z,270.45
2023-01-23T19:19:15.265Z,270.483
2023-01-23T19:20:42.499Z,270.483
2023-01-23T19:22:22.719Z,270.483
2023-01-23T19:24:03.055Z,270.517
2023-01-23T19:25:43.163Z,270.483
2023-01-23T19:27:23.346Z,270.517
2023-01-23T19:29:19.258Z,270.517
2023-01-23T19:30:43.826Z,270.5
2023-01-23T19:32:24.056Z,270.5
2023-01-23T19:34:04.210Z,270.55
2023-01-23T19:35:47.507Z,270.6
2023-01-23T19:37:24.678Z,270.567
2023-01-23T19:39:04.881Z,270.567
2023-01-23T19:40:45.065Z,270.567
2023-01-23T19:42:25.255Z,270.6
2023-01-23T19:44:05.633Z,270.617
2023-01-23T19:45:45.903Z,270.617
2023-01-23T19:47:26.136Z,270.6
2023-01-23T19:49:06.392Z,270.617
2023-01-23T19:50:46.629Z,270.617
2023-01-23T19:52:26.854Z,270.617
2023-01-23T19:54:07.049Z,270.633
2023-01-23T19:55:47.296Z,270.617
2023-01-23T19:57:29.623Z,270.617
2023-01-23T19:59:07.709Z,270.667
2023-01-23T20:00:47.963Z,270.633
2023-01-23T20:02:31.299Z,270.667
2023-01-23T20:04:08.415Z,270.633
2023-01-23T20:05:48.619Z,270.667
2023-01-23T20:07:28.820Z,270.667
2023-01-23T20:09:09.040Z,270.633
2023-01-23T20:10:49.253Z,270.683
2023-01-23T20:12:29.462Z,270.667
2023-01-23T20:14:09.623Z,270.683
2023-01-23T20:15:49.800Z,270.717
2023-01-23T20:17:30.038Z,270.683
2023-01-23T20:19:10.216Z,270.683
2023-01-23T20:20:50.446Z,270.717
2023-01-23T20:22:30.645Z,270.733
2023-01-23T20:24:11.194Z,270.733
2023-01-23T20:25:54.094Z,270.733
2023-01-23T20:27:31.224Z,270.767
2023-01-23T20:29:11.458Z,270.733
2023-01-23T20:30:51.745Z,270.733
2023-01-23T20:32:31.952Z,270.733
2023-01-23T20:34:12.219Z,270.8
2023-01-23T20:35:52.404Z,270.8
2023-01-23T20:37:32.626Z,270.8
2023-01-23T20:39:12.867Z,270.8
2023-01-23T20:40:53.039Z,270.833
2023-01-23T20:42:33.201Z,270.8
2023-01-23T20:44:13.436Z,270.833
2023-01-23T20:45:53.696Z,270.85
2023-01-23T20:47:33.876Z,270.833
2023-01-23T20:49:14.108Z,270.85
2023-01-23T20:50:54.348Z,270.833
2023-01-23T20:52:34.585Z,270.85
2023-01-23T20:54:14.837Z,270.883
2023-01-23T20:55:55.039Z,270.9
2023-01-23T20:57:35.329Z,270.883
2023-01-23T20:59:15.553Z,270.883
2023-01-23T21:00:55.764Z,270.85
2023-01-23T21:02:35.982Z,270.883
2023-01-23T21:04:16.187Z,270.9
2023-01-23T21:05:56.411Z,270.933
2023-01-23T21:07:36.635Z,270.9
2023-01-23T21:09:16.901Z,270.9
2023-01-23T21:10:57.042Z,270.9
2023-01-23T21:12:37.199Z,270.9
2023-01-23T21:14:17.364Z,270.967